Etiwanda, CA (91739)

9:00 PM PDT on September 23, 2014 (GMT -0700)
Etiwanda | Change Station
CLOSE
Current Station
Personal Weather Station
Location: Rancho Cucamonga, CA
Elevation: 1404 ft
Nearby Weather Stations

Elev 1404 ft 34.13 °N, 117.51 °W | Updated 1 minute ago

Clear
Clear
75.4 °F
Feels Like 74 °F
N
0.0
Wind Variable Wind from West

Today
High -- | Low -- °F
--% Chance of Precip.
Yesterday
High -- | Low -- °F
Precip. -- in
6:38 AM 6:45 PM
Waning Crescent, 0% visible
Pressure 29.86 in
Visibility 10.0 miles
Clouds Clear
Heat Index 74 °F
Dew Point 75 °F
Humidity 98%
Rainfall 0.00 in
Snow Depth 0 in , 0 in , 0 in
UV 0 out of 12
Pollen 5.70 out of 12
Ozone Good
PM2.5 Moderate
Flu Activity Not available.
METAR KONT 240353Z 27009KT 10SM CLR 26/10 A2991 RMK AO2 SLP112 T02610100

More Conditions Fewer Conditions

Pressure 29.86 in
Visibility 10.0 miles
Clouds Clear
Heat Index 74 °F
Dew Point 75 °F
Humidity 98%
Rainfall 0.00 in
Snow Depth 0 in , 0 in , 0 in
UV 0 out of 12
Pollen 5.70 out of 12
Ozone Good
PM2.5 Moderate
Flu Activity Not available.
METAR KONT 240353Z 27009KT 10SM CLR 26/10 A2991 RMK AO2 SLP112 T02610100

More Conditions Fewer Conditions

10-Day Weather Forecast

Almanac

Astronomy

Sep. 23, 2014 Rise Set
Actual Time 6:38 AM PDT 6:45 PM PDT
Civil Twilight 6:13 AM PDT 7:10 PM PDT
Nautical Twilight 5:44 AM PDT 7:39 PM PDT
Astronomical Twilight 5:15 AM PDT 8:08 PM PDT
Moon 6:07 AM PDT (9/23) 6:27 PM PDT (9/23)
Length of Visible Light 12h 56m
Length of Day
12h 06m
Tomorrow will be 2m 7s shorter.
Waning Crescent, 0% of the Moon is Illuminated
Sep 24
Waning Crescent
Sep 24
New
Oct 1
First Quarter
Oct 8
Full
Oct 15
Last Quarter

Today's Extremes

State Highs State Lows

Community

WunderPhotos

Upload Photos

1,755,882 photos uploaded!

WunderBlogs® & News

Nearby

Air Quality

  Air Quality AQ Index Pollutant
Yesterday Moderate
OZONE
Yesterday Good
PM10
Current Moderate
PM2.5
Current Good
OZONE
Wednesday Moderate
OZONE
Wednesday Good
PM10
Wednesday Good
CO
Wednesday Good
NO2

Snow Depth

Station Depth Elevation
Summit Meadow 0 in 9122 ft
Leavitt Meadows 0 in 7200 ft
Spratt Creek 0 in 6200 ft
Monitor Pass 0 in 8350 ft
Leavitt Lake 0 in 9400 ft

Earthquake Activity

City Distance Mag. Time & Date
Running Springs, California 30 miles 2.5 7:26 AM PDT
2014-09-22
Borrego Springs, California 91 miles 2.6 7:34 AM PDT
2014-09-21
Minimum magnitude displayed is 2.5.

Coastal Water Temperatures

Place Temperature
No Stations Reporting

Nearby Weather Stations